sensor_id;sensor_type;location;lat;lon;timestamp;pressure;altitude;pressure_sealevel;temperature;humidity
41234;BME280;26968;42.686;23.352;2022-11-15T00:00:55;95843.44;;;5.29;72.84
41234;BME280;26968;42.686;23.352;2022-11-15T00:03:23;95848.47;;;5.30;72.18
41234;BME280;26968;42.686;23.352;2022-11-15T00:05:49;95800.78;;;4.97;72.35
41234;BME280;26968;42.686;23.352;2022-11-15T00:08:16;95849.50;;;5.29;72.48
41234;BME280;26968;42.686;23.352;2022-11-15T00:10:42;95829.69;;;5.15;72.00
41234;BME280;26968;42.686;23.352;2022-11-15T00:13:12;95802.78;;;5.01;72.61
41234;BME280;26968;42.686;23.352;2022-11-15T00:15:41;95849.97;;;5.26;72.01
41234;BME280;26968;42.686;23.352;2022-11-15T00:18:12;95843.91;;;5.26;72.16
41234;BME280;26968;42.686;23.352;2022-11-15T00:20:38;95787.53;;;4.92;72.16
41234;BME280;26968;42.686;23.352;2022-11-15T00:23:04;95841.72;;;5.23;72.91
41234;BME280;26968;42.686;23.352;2022-11-15T00:25:33;95840.47;;;5.25;72.17
41234;BME280;26968;42.686;23.352;2022-11-15T00:27:59;95839.50;;;5.20;71.99
41234;BME280;26968;42.686;23.352;2022-11-15T00:30:25;95835.06;;;5.20;71.97
41234;BME280;26968;42.686;23.352;2022-11-15T00:32:51;95827.75;;;5.22;71.58
41234;BME280;26968;42.686;23.352;2022-11-15T00:35:17;95811.16;;;5.10;71.74
41234;BME280;26968;42.686;23.352;2022-11-15T00:37:43;95824.41;;;5.15;71.92
41234;BME280;26968;42.686;23.352;2022-11-15T00:40:09;95741.03;;;4.62;72.44
41234;BME280;26968;42.686;23.352;2022-11-15T00:42:35;95788.56;;;4.91;72.48
41234;BME280;26968;42.686;23.352;2022-11-15T00:45:00;95741.84;;;4.63;71.95
41234;BME280;26968;42.686;23.352;2022-11-15T00:47:26;95682.53;;;4.25;71.93
41234;BME280;26968;42.686;23.352;2022-11-15T00:49:51;95824.63;;;5.14;71.86
41234;BME280;26968;42.686;23.352;2022-11-15T00:52:17;95757.84;;;4.73;72.83
41234;BME280;26968;42.686;23.352;2022-11-15T00:54:42;95733.25;;;4.56;72.53
41234;BME280;26968;42.686;23.352;2022-11-15T00:57:08;95796.91;;;4.88;73.09
41234;BME280;26968;42.686;23.352;2022-11-15T00:59:36;95818.00;;;5.11;72.24
41234;BME280;26968;42.686;23.352;2022-11-15T01:02:01;95741.75;;;4.70;72.63
41234;BME280;26968;42.686;23.352;2022-11-15T01:04:27;95685.19;;;4.37;72.08
41234;BME280;26968;42.686;23.352;2022-11-15T01:06:54;95814.94;;;5.14;72.04
41234;BME280;26968;42.686;23.352;2022-11-15T01:09:19;95796.00;;;4.94;71.97
41234;BME280;26968;42.686;23.352;2022-11-15T01:11:45;95699.34;;;4.36;71.86
41234;BME280;26968;42.686;23.352;2022-11-15T01:14:10;95813.06;;;5.03;72.10
41234;BME280;26968;42.686;23.352;2022-11-15T01:16:36;95812.81;;;5.04;71.70
41234;BME280;26968;42.686;23.352;2022-11-15T01:19:02;95675.16;;;4.16;71.90
41234;BME280;26968;42.686;23.352;2022-11-15T01:21:29;95754.38;;;4.61;71.80
41234;BME280;26968;42.686;23.352;2022-11-15T01:23:55;95810.88;;;5.00;72.13
41234;BME280;26968;42.686;23.352;2022-11-15T01:26:23;95806.84;;;4.97;71.85
41234;BME280;26968;42.686;23.352;2022-11-15T01:28:49;95758.72;;;4.55;71.77
41234;BME280;26968;42.686;23.352;2022-11-15T01:31:18;95805.94;;;4.92;72.48
41234;BME280;26968;42.686;23.352;2022-11-15T01:33:45;95749.66;;;4.51;72.20
41234;BME280;26968;42.686;23.352;2022-11-15T01:36:16;95800.97;;;4.84;72.54
41234;BME280;26968;42.686;23.352;2022-11-15T01:38:42;95789.16;;;4.75;72.35
41234;BME280;26968;42.686;23.352;2022-11-15T01:41:15;95809.16;;;4.94;72.56
41234;BME280;26968;42.686;23.352;2022-11-15T01:43:41;95745.41;;;4.50;72.32
41234;BME280;26968;42.686;23.352;2022-11-15T01:48:50;95808.56;;;4.92;71.74
41234;BME280;26968;42.686;23.352;2022-11-15T01:51:19;95792.50;;;4.82;72.03
41234;BME280;26968;42.686;23.352;2022-11-15T01:53:49;95802.94;;;4.88;72.24
41234;BME280;26968;42.686;23.352;2022-11-15T01:56:19;95757.81;;;4.43;71.66
41234;BME280;26968;42.686;23.352;2022-11-15T01:58:46;95704.13;;;4.09;71.80
41234;BME280;26968;42.686;23.352;2022-11-15T02:01:13;95796.81;;;4.76;72.21
41234;BME280;26968;42.686;23.352;2022-11-15T02:04:20;95802.31;;;4.75;71.95
41234;BME280;26968;42.686;23.352;2022-11-15T02:06:39;95705.13;;;3.90;71.87
41234;BME280;26968;42.686;23.352;2022-11-15T02:09:07;95797.44;;;4.60;72.02
41234;BME280;26968;42.686;23.352;2022-11-15T02:11:33;95784.56;;;4.40;72.18
41234;BME280;26968;42.686;23.352;2022-11-15T02:14:00;95800.88;;;4.60;72.23
41234;BME280;26968;42.686;23.352;2022-11-15T02:16:36;95803.50;;;4.60;72.38
41234;BME280;26968;42.686;23.352;2022-11-15T02:22:17;95802.03;;;4.64;72.59
41234;BME280;26968;42.686;23.352;2022-11-15T02:33:03;95766.81;;;4.36;72.16
41234;BME280;26968;42.686;23.352;2022-11-15T02:38:07;95796.84;;;4.58;72.55
41234;BME280;26968;42.686;23.352;2022-11-15T02:40:46;95789.34;;;4.61;72.26
41234;BME280;26968;42.686;23.352;2022-11-15T02:43:21;95791.75;;;4.63;71.82
41234;BME280;26968;42.686;23.352;2022-11-15T02:46:14;95673.50;;;3.85;71.86
41234;BME280;26968;42.686;23.352;2022-11-15T02:48:44;95730.06;;;4.17;71.81
41234;BME280;26968;42.686;23.352;2022-11-15T02:51:11;95732.91;;;4.16;71.90
41234;BME280;26968;42.686;23.352;2022-11-15T02:53:37;95770.63;;;4.40;72.13
41234;BME280;26968;42.686;23.352;2022-11-15T02:56:03;95694.06;;;3.88;71.78
41234;BME280;26968;42.686;23.352;2022-11-15T03:03:54;95801.66;;;4.61;72.97
41234;BME280;26968;42.686;23.352;2022-11-15T03:06:30;95797.00;;;4.63;72.50
41234;BME280;26968;42.686;23.352;2022-11-15T03:09:11;95747.34;;;4.25;72.97
41234;BME280;26968;42.686;23.352;2022-11-15T03:11:46;95752.22;;;4.21;73.23
41234;BME280;26968;42.686;23.352;2022-11-15T03:14:30;95797.81;;;4.63;72.92
41234;BME280;26968;42.686;23.352;2022-11-15T03:22:05;95721.44;;;4.28;73.10
41234;BME280;26968;42.686;23.352;2022-11-15T03:24:36;95753.97;;;4.46;73.46
41234;BME280;26968;42.686;23.352;2022-11-15T03:27:05;95734.50;;;4.35;73.32
41234;BME280;26968;42.686;23.352;2022-11-15T03:29:35;95789.38;;;4.73;73.57
41234;BME280;26968;42.686;23.352;2022-11-15T03:32:08;95771.75;;;4.62;73.65
41234;BME280;26968;42.686;23.352;2022-11-15T03:34:47;95787.72;;;4.79;73.45
41234;BME280;26968;42.686;23.352;2022-11-15T03:37:15;95670.00;;;4.09;73.30
41234;BME280;26968;42.686;23.352;2022-11-15T03:39:42;95710.34;;;4.45;73.06
41234;BME280;26968;42.686;23.352;2022-11-15T03:42:30;95669.09;;;4.15;73.15
41234;BME280;26968;42.686;23.352;2022-11-15T03:45:13;95767.25;;;4.81;73.64
41234;BME280;26968;42.686;23.352;2022-11-15T03:47:48;95715.00;;;4.43;73.79
41234;BME280;26968;42.686;23.352;2022-11-15T03:50:21;95763.88;;;4.92;73.04
41234;BME280;26968;42.686;23.352;2022-11-15T03:52:48;95760.22;;;4.93;73.35
41234;BME280;26968;42.686;23.352;2022-11-15T03:55:17;95762.63;;;4.94;73.68
41234;BME280;26968;42.686;23.352;2022-11-15T03:57:43;95748.63;;;4.82;73.77
41234;BME280;26968;42.686;23.352;2022-11-15T04:00:09;95737.09;;;4.83;73.41
41234;BME280;26968;42.686;23.352;2022-11-15T04:02:35;95753.00;;;4.88;72.99
41234;BME280;26968;42.686;23.352;2022-11-15T04:05:00;95764.31;;;4.89;72.75
41234;BME280;26968;42.686;23.352;2022-11-15T04:07:26;95703.66;;;4.60;72.58
41234;BME280;26968;42.686;23.352;2022-11-15T04:09:51;95706.78;;;4.69;73.03
41234;BME280;26968;42.686;23.352;2022-11-15T04:12:33;95700.81;;;4.62;72.66
41234;BME280;26968;42.686;23.352;2022-11-15T04:15:02;95753.13;;;4.93;72.53
41234;BME280;26968;42.686;23.352;2022-11-15T04:17:42;95759.53;;;4.97;72.78
41234;BME280;26968;42.686;23.352;2022-11-15T04:20:31;95704.38;;;4.68;72.41
41234;BME280;26968;42.686;23.352;2022-11-15T04:23:21;95734.16;;;4.91;72.07
41234;BME280;26968;42.686;23.352;2022-11-15T04:26:11;95715.47;;;4.70;72.21
41234;BME280;26968;42.686;23.352;2022-11-15T04:28:39;95672.75;;;4.44;72.81
41234;BME280;26968;42.686;23.352;2022-11-15T04:31:24;95749.72;;;4.93;72.80
41234;BME280;26968;42.686;23.352;2022-11-15T04:33:50;95744.56;;;4.98;72.28
41234;BME280;26968;42.686;23.352;2022-11-15T04:36:15;95668.78;;;4.42;72.12
41234;BME280;26968;42.686;23.352;2022-11-15T04:38:59;95694.06;;;4.54;72.34
41234;BME280;26968;42.686;23.352;2022-11-15T04:41:25;95738.72;;;4.84;72.29
41234;BME280;26968;42.686;23.352;2022-11-15T04:43:50;95711.13;;;4.75;72.05
41234;BME280;26968;42.686;23.352;2022-11-15T04:46:16;95744.00;;;4.96;72.07
41234;BME280;26968;42.686;23.352;2022-11-15T04:48:41;95697.97;;;4.63;71.60
41234;BME280;26968;42.686;23.352;2022-11-15T04:51:06;95710.50;;;4.80;71.88
41234;BME280;26968;42.686;23.352;2022-11-15T04:53:32;95753.03;;;5.00;71.39
41234;BME280;26968;42.686;23.352;2022-11-15T04:55:57;95755.88;;;4.98;71.54
41234;BME280;26968;42.686;23.352;2022-11-15T04:58:23;95658.28;;;4.42;71.51
41234;BME280;26968;42.686;23.352;2022-11-15T05:00:48;95757.88;;;5.03;71.67
41234;BME280;26968;42.686;23.352;2022-11-15T05:03:13;95683.81;;;4.64;71.69
41234;BME280;26968;42.686;23.352;2022-11-15T05:05:58;95760.81;;;4.95;71.62
41234;BME280;26968;42.686;23.352;2022-11-15T05:08:25;95630.00;;;4.25;71.47
41234;BME280;26968;42.686;23.352;2022-11-15T05:10:50;95686.88;;;4.61;71.21
41234;BME280;26968;42.686;23.352;2022-11-15T05:13:16;95734.03;;;4.86;71.49
41234;BME280;26968;42.686;23.352;2022-11-15T05:15:42;95759.91;;;5.01;72.09
41234;BME280;26968;42.686;23.352;2022-11-15T05:18:07;95736.56;;;4.93;72.63
41234;BME280;26968;42.686;23.352;2022-11-15T05:20:34;95759.59;;;5.09;72.79
41234;BME280;26968;42.686;23.352;2022-11-15T05:22:59;95711.50;;;4.79;72.67
41234;BME280;26968;42.686;23.352;2022-11-15T05:25:25;95661.28;;;4.57;72.81
41234;BME280;26968;42.686;23.352;2022-11-15T05:27:50;95721.44;;;4.88;73.34
41234;BME280;26968;42.686;23.352;2022-11-15T05:30:16;95741.75;;;5.11;73.84
41234;BME280;26968;42.686;23.352;2022-11-15T05:32:42;95659.91;;;4.54;73.46
41234;BME280;26968;42.686;23.352;2022-11-15T05:35:12;95596.69;;;4.26;73.94
41234;BME280;26968;42.686;23.352;2022-11-15T05:37:40;95738.34;;;5.22;74.23
41234;BME280;26968;42.686;23.352;2022-11-15T05:40:06;95730.19;;;5.00;75.34
41234;BME280;26968;42.686;23.352;2022-11-15T05:42:32;95701.59;;;4.92;74.93
41234;BME280;26968;42.686;23.352;2022-11-15T05:44:58;95656.50;;;4.65;75.08
41234;BME280;26968;42.686;23.352;2022-11-15T05:47:26;95747.38;;;5.15;75.15
41234;BME280;26968;42.686;23.352;2022-11-15T05:49:55;95716.47;;;4.98;76.12
41234;BME280;26968;42.686;23.352;2022-11-15T05:52:25;95689.16;;;4.88;75.74
41234;BME280;26968;42.686;23.352;2022-11-15T05:54:55;95676.88;;;4.82;75.78
41234;BME280;26968;42.686;23.352;2022-11-15T05:57:22;95652.72;;;4.61;75.47
41234;BME280;26968;42.686;23.352;2022-11-15T05:59:47;95754.38;;;5.32;76.06
41234;BME280;26968;42.686;23.352;2022-11-15T06:02:13;95673.13;;;4.78;76.16
41234;BME280;26968;42.686;23.352;2022-11-15T06:04:38;95700.91;;;4.97;76.10
41234;BME280;26968;42.686;23.352;2022-11-15T06:07:03;95694.03;;;4.96;76.28
41234;BME280;26968;42.686;23.352;2022-11-15T06:09:29;95669.31;;;4.74;76.04
41234;BME280;26968;42.686;23.352;2022-11-15T06:11:54;95622.16;;;4.37;76.38
41234;BME280;26968;42.686;23.352;2022-11-15T06:14:20;95769.03;;;5.40;75.62
41234;BME280;26968;42.686;23.352;2022-11-15T06:16:45;95636.84;;;4.56;76.13
41234;BME280;26968;42.686;23.352;2022-11-15T06:19:11;95653.47;;;4.50;76.41
41234;BME280;26968;42.686;23.352;2022-11-15T06:21:36;95694.72;;;4.91;76.40
41234;BME280;26968;42.686;23.352;2022-11-15T06:24:02;95686.16;;;4.84;76.15
41234;BME280;26968;42.686;23.352;2022-11-15T06:26:28;95650.22;;;4.66;76.22
41234;BME280;26968;42.686;23.352;2022-11-15T06:28:54;95752.56;;;5.33;76.66
41234;BME280;26968;42.686;23.352;2022-11-15T06:31:19;95684.44;;;4.90;76.35
41234;BME280;26968;42.686;23.352;2022-11-15T06:33:46;95767.22;;;5.52;76.39
41234;BME280;26968;42.686;23.352;2022-11-15T06:36:12;95756.03;;;5.57;76.60
41234;BME280;26968;42.686;23.352;2022-11-15T06:38:44;95708.97;;;5.25;76.31
41234;BME280;26968;42.686;23.352;2022-11-15T06:41:10;95738.38;;;5.46;75.81
41234;BME280;26968;42.686;23.352;2022-11-15T06:43:37;95714.78;;;5.27;76.30
41234;BME280;26968;42.686;23.352;2022-11-15T06:46:03;95750.19;;;5.55;76.45
41234;BME280;26968;42.686;23.352;2022-11-15T06:48:30;95654.50;;;4.91;75.99
41234;BME280;26968;42.686;23.352;2022-11-15T06:50:58;95708.41;;;5.35;75.86
41234;BME280;26968;42.686;23.352;2022-11-15T06:53:24;95760.03;;;5.71;75.85
41234;BME280;26968;42.686;23.352;2022-11-15T06:55:50;95649.72;;;4.99;75.83
41234;BME280;26968;42.686;23.352;2022-11-15T06:58:15;95709.34;;;5.40;75.98
41234;BME280;26968;42.686;23.352;2022-11-15T07:00:41;95735.88;;;5.62;75.67
41234;BME280;26968;42.686;23.352;2022-11-15T07:03:07;95759.91;;;5.77;75.33
41234;BME280;26968;42.686;23.352;2022-11-15T07:05:35;95650.31;;;5.13;75.66
41234;BME280;26968;42.686;23.352;2022-11-15T07:08:00;95749.16;;;5.79;76.08
41234;BME280;26968;42.686;23.352;2022-11-15T07:10:27;95703.38;;;5.45;75.38
41234;BME280;26968;42.686;23.352;2022-11-15T07:12:53;95713.94;;;5.57;75.82
41234;BME280;26968;42.686;23.352;2022-11-15T07:15:25;95742.06;;;5.79;75.49
41234;BME280;26968;42.686;23.352;2022-11-15T07:17:50;95747.94;;;5.93;75.51
41234;BME280;26968;42.686;23.352;2022-11-15T07:20:17;95741.63;;;5.94;75.11
41234;BME280;26968;42.686;23.352;2022-11-15T07:22:43;95654.31;;;5.27;74.73
41234;BME280;26968;42.686;23.352;2022-11-15T07:25:12;95674.22;;;5.58;75.13
41234;BME280;26968;42.686;23.352;2022-11-15T07:27:38;95747.34;;;5.79;75.46
41234;BME280;26968;42.686;23.352;2022-11-15T07:30:04;95746.31;;;5.92;75.53
41234;BME280;26968;42.686;23.352;2022-11-15T07:32:29;95750.19;;;5.90;75.30
41234;BME280;26968;42.686;23.352;2022-11-15T07:34:54;95673.66;;;5.44;75.64
41234;BME280;26968;42.686;23.352;2022-11-15T07:37:20;95697.00;;;5.64;75.69
41234;BME280;26968;42.686;23.352;2022-11-15T07:39:45;95755.69;;;6.00;75.69
41234;BME280;26968;42.686;23.352;2022-11-15T07:42:11;95679.25;;;5.48;75.55
41234;BME280;26968;42.686;23.352;2022-11-15T07:44:54;95746.56;;;6.02;75.20
41234;BME280;26968;42.686;23.352;2022-11-15T07:47:20;95748.38;;;6.02;75.07
41234;BME280;26968;42.686;23.352;2022-11-15T07:49:46;95746.78;;;6.01;75.33
41234;BME280;26968;42.686;23.352;2022-11-15T07:52:12;95749.06;;;6.09;75.27
41234;BME280;26968;42.686;23.352;2022-11-15T07:54:38;95741.16;;;6.09;74.65
41234;BME280;26968;42.686;23.352;2022-11-15T07:57:04;95748.25;;;6.08;74.57
41234;BME280;26968;42.686;23.352;2022-11-15T07:59:30;95663.00;;;5.28;76.58
41234;BME280;26968;42.686;23.352;2022-11-15T08:01:55;95599.69;;;4.94;76.18
41234;BME280;26968;42.686;23.352;2022-11-15T08:04:21;95647.22;;;5.28;76.21
41234;BME280;26968;42.686;23.352;2022-11-15T08:06:46;95719.16;;;5.80;76.18
41234;BME280;26968;42.686;23.352;2022-11-15T08:09:12;95648.25;;;5.38;75.45
41234;BME280;26968;42.686;23.352;2022-11-15T08:11:37;95658.22;;;5.48;75.62
41234;BME280;26968;42.686;23.352;2022-11-15T08:14:02;95696.19;;;5.64;75.72
41234;BME280;26968;42.686;23.352;2022-11-15T08:16:28;95616.25;;;5.07;76.53
41234;BME280;26968;42.686;23.352;2022-11-15T08:18:53;95727.41;;;5.60;76.89
41234;BME280;26968;42.686;23.352;2022-11-15T08:21:20;95736.00;;;5.79;75.90
41234;BME280;26968;42.686;23.352;2022-11-15T08:23:46;95695.38;;;5.63;76.07
41234;BME280;26968;42.686;23.352;2022-11-15T08:26:11;95679.38;;;5.41;76.14
41234;BME280;26968;42.686;23.352;2022-11-15T08:28:37;95689.78;;;5.60;75.90
41234;BME280;26968;42.686;23.352;2022-11-15T08:31:03;95659.13;;;5.42;76.30
41234;BME280;26968;42.686;23.352;2022-11-15T08:33:30;95737.47;;;5.75;76.17
41234;BME280;26968;42.686;23.352;2022-11-15T08:35:57;95674.56;;;5.38;76.43
41234;BME280;26968;42.686;23.352;2022-11-15T08:38:22;95715.84;;;5.85;75.99
41234;BME280;26968;42.686;23.352;2022-11-15T08:40:49;95637.88;;;5.32;76.33
41234;BME280;26968;42.686;23.352;2022-11-15T08:43:15;95730.41;;;5.99;75.87
41234;BME280;26968;42.686;23.352;2022-11-15T08:45:40;95724.66;;;6.13;75.98
41234;BME280;26968;42.686;23.352;2022-11-15T08:48:06;95721.56;;;6.05;75.49
41234;BME280;26968;42.686;23.352;2022-11-15T08:50:31;95696.31;;;5.92;76.08
41234;BME280;26968;42.686;23.352;2022-11-15T08:52:57;95637.59;;;5.68;75.49
41234;BME280;26968;42.686;23.352;2022-11-15T08:55:22;95597.91;;;5.58;75.25
41234;BME280;26968;42.686;23.352;2022-11-15T08:57:48;95652.44;;;5.98;75.19
41234;BME280;26968;42.686;23.352;2022-11-15T09:00:13;95628.31;;;5.89;75.08
41234;BME280;26968;42.686;23.352;2022-11-15T09:02:39;95700.59;;;6.50;74.95
41234;BME280;26968;42.686;23.352;2022-11-15T09:05:06;95625.78;;;5.94;74.72
41234;BME280;26968;42.686;23.352;2022-11-15T09:07:31;95536.09;;;5.32;74.73
41234;BME280;26968;42.686;23.352;2022-11-15T09:09:57;95636.09;;;5.72;75.23
41234;BME280;26968;42.686;23.352;2022-11-15T09:12:23;95694.94;;;6.30;75.09
41234;BME280;26968;42.686;23.352;2022-11-15T09:14:48;95683.25;;;6.37;75.16
41234;BME280;26968;42.686;23.352;2022-11-15T09:17:15;95670.41;;;6.01;75.71
41234;BME280;26968;42.686;23.352;2022-11-15T09:19:41;95683.63;;;6.29;75.71
41234;BME280;26968;42.686;23.352;2022-11-15T09:22:07;95622.56;;;5.80;75.02
41234;BME280;26968;42.686;23.352;2022-11-15T09:24:34;95636.72;;;6.03;75.47
41234;BME280;26968;42.686;23.352;2022-11-15T09:26:59;95589.63;;;5.90;74.89
41234;BME280;26968;42.686;23.352;2022-11-15T09:29:25;95653.69;;;6.35;75.17
41234;BME280;26968;42.686;23.352;2022-11-15T09:31:54;95648.41;;;6.47;75.03
41234;BME280;26968;42.686;23.352;2022-11-15T09:34:19;95660.31;;;6.66;74.40
41234;BME280;26968;42.686;23.352;2022-11-15T09:36:46;95566.34;;;6.10;74.21
41234;BME280;26968;42.686;23.352;2022-11-15T09:39:12;95611.50;;;6.47;74.19
41234;BME280;26968;42.686;23.352;2022-11-15T09:41:50;95586.25;;;6.34;73.79
41234;BME280;26968;42.686;23.352;2022-11-15T09:49:53;95472.16;;;5.72;74.01
41234;BME280;26968;42.686;23.352;2022-11-15T09:52:22;95625.75;;;6.63;73.47
41234;BME280;26968;42.686;23.352;2022-11-15T09:54:49;95557.34;;;6.23;73.32
41234;BME280;26968;42.686;23.352;2022-11-15T09:57:18;95594.56;;;6.43;73.75
41234;BME280;26968;42.686;23.352;2022-11-15T10:02:33;95623.75;;;6.70;74.14
41234;BME280;26968;42.686;23.352;2022-11-15T10:05:02;95620.00;;;6.82;73.52
41234;BME280;26968;42.686;23.352;2022-11-15T10:07:44;95537.63;;;6.42;74.02
41234;BME280;26968;42.686;23.352;2022-11-15T10:10:29;95613.22;;;7.03;73.66
41234;BME280;26968;42.686;23.352;2022-11-15T10:12:57;95522.81;;;6.52;73.72
41234;BME280;26968;42.686;23.352;2022-11-15T10:15:23;95496.69;;;6.34;73.61
41234;BME280;26968;42.686;23.352;2022-11-15T10:18:15;95599.44;;;7.18;73.68
41234;BME280;26968;42.686;23.352;2022-11-15T10:20:52;95492.09;;;6.80;72.82
41234;BME280;26968;42.686;23.352;2022-11-15T10:23:21;95511.41;;;7.02;72.35
41234;BME280;26968;42.686;23.352;2022-11-15T10:25:51;95506.59;;;7.16;71.90
41234;BME280;26968;42.686;23.352;2022-11-15T10:28:21;95594.88;;;8.12;70.59
41234;BME280;26968;42.686;23.352;2022-11-15T10:34:12;95585.09;;;8.61;68.11
41234;BME280;26968;42.686;23.352;2022-11-15T10:37:04;95376.88;;;7.46;67.09
41234;BME280;26968;42.686;23.352;2022-11-15T10:39:29;95494.97;;;8.09;67.28
41234;BME280;26968;42.686;23.352;2022-11-15T10:41:55;95564.69;;;8.57;67.25
41234;BME280;26968;42.686;23.352;2022-11-15T10:44:30;95432.31;;;7.72;67.63
41234;BME280;26968;42.686;23.352;2022-11-15T10:49:29;95524.25;;;8.93;66.88
41234;BME280;26968;42.686;23.352;2022-11-15T10:52:00;95551.22;;;9.32;65.72
41234;BME280;26968;42.686;23.352;2022-11-15T10:57:06;95499.13;;;8.90;65.30
41234;BME280;26968;42.686;23.352;2022-11-15T10:59:36;95495.47;;;9.02;65.38
41234;BME280;26968;42.686;23.352;2022-11-15T11:04:51;95425.16;;;9.11;64.25
41234;BME280;26968;42.686;23.352;2022-11-15T11:07:22;95444.53;;;9.26;65.02
41234;BME280;26968;42.686;23.352;2022-11-15T11:10:18;95455.75;;;9.44;63.79
41234;BME280;26968;42.686;23.352;2022-11-15T11:12:41;95414.13;;;9.29;63.31
41234;BME280;26968;42.686;23.352;2022-11-15T11:15:13;95434.63;;;9.69;63.24
41234;BME280;26968;42.686;23.352;2022-11-15T11:21:13;95466.56;;;10.35;61.61
41234;BME280;26968;42.686;23.352;2022-11-15T11:23:53;95410.59;;;10.11;60.77
41234;BME280;26968;42.686;23.352;2022-11-15T11:26:42;95494.94;;;10.85;61.22
41234;BME280;26968;42.686;23.352;2022-11-15T11:29:32;95486.44;;;10.93;60.54
41234;BME280;26968;42.686;23.352;2022-11-15T11:35:24;95477.13;;;11.06;60.38
41234;BME280;26968;42.686;23.352;2022-11-15T11:37:56;95467.00;;;11.18;59.50
41234;BME280;26968;42.686;23.352;2022-11-15T11:40:32;95384.63;;;10.59;59.66
41234;BME280;26968;42.686;23.352;2022-11-15T11:54:11;95380.09;;;10.54;59.43
41234;BME280;26968;42.686;23.352;2022-11-15T11:56:41;95407.09;;;10.87;59.49
41234;BME280;26968;42.686;23.352;2022-11-15T12:01:42;95428.84;;;10.94;59.79
41234;BME280;26968;42.686;23.352;2022-11-15T12:06:53;95384.09;;;10.47;61.53
41234;BME280;26968;42.686;23.352;2022-11-15T12:09:43;95415.59;;;10.89;60.83
41234;BME280;26968;42.686;23.352;2022-11-15T12:17:28;95343.69;;;10.90;60.22
41234;BME280;26968;42.686;23.352;2022-11-15T12:20:04;95402.16;;;11.39;59.74
41234;BME280;26968;42.686;23.352;2022-11-15T12:22:44;95311.34;;;10.83;59.36
41234;BME280;26968;42.686;23.352;2022-11-15T12:25:45;95281.06;;;10.84;59.11
41234;BME280;26968;42.686;23.352;2022-11-15T12:28:16;95386.16;;;11.49;58.79
41234;BME280;26968;42.686;23.352;2022-11-15T12:30:51;95362.19;;;11.65;58.36
41234;BME280;26968;42.686;23.352;2022-11-15T12:33:37;95371.16;;;11.74;57.89
41234;BME280;26968;42.686;23.352;2022-11-15T12:36:09;95291.41;;;11.40;57.61
41234;BME280;26968;42.686;23.352;2022-11-15T12:38:57;95376.78;;;12.06;57.56
41234;BME280;26968;42.686;23.352;2022-11-15T12:41:26;95304.22;;;11.72;57.43
41234;BME280;26968;42.686;23.352;2022-11-15T12:43:53;95347.50;;;11.82;57.24
41234;BME280;26968;42.686;23.352;2022-11-15T12:48:48;95280.63;;;11.60;57.58
41234;BME280;26968;42.686;23.352;2022-11-15T12:51:14;95363.31;;;11.97;57.56
41234;BME280;26968;42.686;23.352;2022-11-15T12:53:40;95333.72;;;12.09;56.85
41234;BME280;26968;42.686;23.352;2022-11-15T13:06:43;95301.53;;;11.77;56.57
41234;BME280;26968;42.686;23.352;2022-11-15T13:11:59;95350.53;;;11.99;57.08
41234;BME280;26968;42.686;23.352;2022-11-15T13:14:51;95342.28;;;12.01;56.90
41234;BME280;26968;42.686;23.352;2022-11-15T13:17:23;95333.00;;;11.98;57.22
41234;BME280;26968;42.686;23.352;2022-11-15T13:22:51;95263.88;;;11.65;57.09
41234;BME280;26968;42.686;23.352;2022-11-15T13:27:51;95293.88;;;12.04;56.23
41234;BME280;26968;42.686;23.352;2022-11-15T13:30:22;95323.00;;;12.19;56.54
41234;BME280;26968;42.686;23.352;2022-11-15T13:32:50;95306.59;;;12.12;56.02
41234;BME280;26968;42.686;23.352;2022-11-15T13:35:24;95228.56;;;11.64;56.07
41234;BME280;26968;42.686;23.352;2022-11-15T13:37:52;95208.81;;;11.41;56.58
41234;BME280;26968;42.686;23.352;2022-11-15T13:42:47;95278.78;;;11.60;57.51
41234;BME280;26968;42.686;23.352;2022-11-15T13:45:15;95291.47;;;11.69;57.06
41234;BME280;26968;42.686;23.352;2022-11-15T13:47:42;95279.19;;;11.44;57.93
41234;BME280;26968;42.686;23.352;2022-11-15T13:50:11;95245.72;;;11.04;58.47
41234;BME280;26968;42.686;23.352;2022-11-15T13:52:39;95316.44;;;11.29;58.80
41234;BME280;26968;42.686;23.352;2022-11-15T13:55:15;95302.09;;;11.30;59.41
41234;BME280;26968;42.686;23.352;2022-11-15T13:57:45;95306.91;;;11.28;59.29
41234;BME280;26968;42.686;23.352;2022-11-15T14:03:27;95220.25;;;10.49;60.34
41234;BME280;26968;42.686;23.352;2022-11-15T14:06:13;95298.28;;;10.97;60.53
41234;BME280;26968;42.686;23.352;2022-11-15T14:08:42;95126.91;;;9.62;60.57
41234;BME280;26968;42.686;23.352;2022-11-15T14:11:09;95300.03;;;10.57;62.20
41234;BME280;26968;42.686;23.352;2022-11-15T14:13:37;95203.19;;;9.70;62.99
41234;BME280;26968;42.686;23.352;2022-11-15T14:16:18;95299.56;;;10.35;62.97
41234;BME280;26968;42.686;23.352;2022-11-15T14:18:51;95299.84;;;10.18;63.52
41234;BME280;26968;42.686;23.352;2022-11-15T14:21:18;95143.91;;;8.75;64.59
41234;BME280;26968;42.686;23.352;2022-11-15T14:23:44;95295.56;;;9.46;65.85
41234;BME280;26968;42.686;23.352;2022-11-15T14:26:31;95248.41;;;9.03;67.14
41234;BME280;26968;42.686;23.352;2022-11-15T14:29:27;95301.66;;;9.42;66.71
41234;BME280;26968;42.686;23.352;2022-11-15T14:31:54;95306.66;;;9.18;67.09
41234;BME280;26968;42.686;23.352;2022-11-15T14:34:31;95203.63;;;8.66;67.03
41234;BME280;26968;42.686;23.352;2022-11-15T14:36:57;95254.75;;;8.97;67.40
41234;BME280;26968;42.686;23.352;2022-11-15T14:39:22;95259.50;;;8.89;67.16
41234;BME280;26968;42.686;23.352;2022-11-15T14:41:50;95278.31;;;8.98;67.79
41234;BME280;26968;42.686;23.352;2022-11-15T14:44:15;95211.25;;;8.57;67.56
41234;BME280;26968;42.686;23.352;2022-11-15T14:46:43;95295.75;;;8.99;68.02
41234;BME280;26968;42.686;23.352;2022-11-15T14:49:09;95275.00;;;8.61;68.69
41234;BME280;26968;42.686;23.352;2022-11-15T14:51:34;95285.03;;;8.59;68.91